sensor_id;sensor_type;location;lat;lon;timestamp;P1;durP1;ratioP1;P2;durP2;ratioP2
67041;SDS011;53949;47.790;18.750;2023-04-23T00:01:02;5.12;;;4.18;;
67041;SDS011;53949;47.790;18.750;2023-04-23T00:04:07;7.80;;;4.65;;
67041;SDS011;53949;47.790;18.750;2023-04-23T00:07:11;4.85;;;4.43;;
67041;SDS011;53949;47.790;18.750;2023-04-23T00:10:15;5.22;;;4.35;;
67041;SDS011;53949;47.790;18.750;2023-04-23T00:13:19;8.63;;;5.47;;
67041;SDS011;53949;47.790;18.750;2023-04-23T00:16:22;9.23;;;4.45;;
67041;SDS011;53949;47.790;18.750;2023-04-23T00:19:26;12.15;;;5.00;;
67041;SDS011;53949;47.790;18.750;2023-04-23T00:22:29;9.95;;;4.50;;
67041;SDS011;53949;47.790;18.750;2023-04-23T00:25:32;6.18;;;4.50;;
67041;SDS011;53949;47.790;18.750;2023-04-23T00:28:36;6.03;;;4.30;;
67041;SDS011;53949;47.790;18.750;2023-04-23T00:31:39;6.07;;;4.65;;
67041;SDS011;53949;47.790;18.750;2023-04-23T00:34:42;6.78;;;4.70;;
67041;SDS011;53949;47.790;18.750;2023-04-23T00:37:45;5.43;;;4.28;;
67041;SDS011;53949;47.790;18.750;2023-04-23T00:40:50;8.27;;;4.40;;
67041;SDS011;53949;47.790;18.750;2023-04-23T00:43:53;9.03;;;4.67;;
67041;SDS011;53949;47.790;18.750;2023-04-23T00:46:59;7.50;;;4.35;;
67041;SDS011;53949;47.790;18.750;2023-04-23T00:50:04;7.57;;;4.78;;
67041;SDS011;53949;47.790;18.750;2023-04-23T00:53:09;8.60;;;4.62;;
67041;SDS011;53949;47.790;18.750;2023-04-23T00:56:13;9.40;;;4.70;;
67041;SDS011;53949;47.790;18.750;2023-04-23T00:59:17;10.68;;;4.47;;
67041;SDS011;53949;47.790;18.750;2023-04-23T01:02:21;8.88;;;4.82;;
67041;SDS011;53949;47.790;18.750;2023-04-23T01:05:24;9.02;;;4.18;;
67041;SDS011;53949;47.790;18.750;2023-04-23T01:08:27;6.25;;;5.00;;
67041;SDS011;53949;47.790;18.750;2023-04-23T01:11:31;9.37;;;4.37;;
67041;SDS011;53949;47.790;18.750;2023-04-23T01:14:36;6.47;;;4.40;;
67041;SDS011;53949;47.790;18.750;2023-04-23T01:17:40;7.43;;;4.22;;
67041;SDS011;53949;47.790;18.750;2023-04-23T01:20:44;5.43;;;4.23;;
67041;SDS011;53949;47.790;18.750;2023-04-23T01:23:48;5.65;;;4.25;;
67041;SDS011;53949;47.790;18.750;2023-04-23T01:26:54;7.37;;;4.60;;
67041;SDS011;53949;47.790;18.750;2023-04-23T01:29:58;7.45;;;4.97;;
67041;SDS011;53949;47.790;18.750;2023-04-23T01:33:01;5.40;;;4.12;;
67041;SDS011;53949;47.790;18.750;2023-04-23T01:36:04;10.25;;;4.80;;
67041;SDS011;53949;47.790;18.750;2023-04-23T01:39:07;9.68;;;4.50;;
67041;SDS011;53949;47.790;18.750;2023-04-23T01:42:11;6.45;;;4.40;;
67041;SDS011;53949;47.790;18.750;2023-04-23T01:45:15;6.47;;;4.50;;
67041;SDS011;53949;47.790;18.750;2023-04-23T01:48:23;6.90;;;3.92;;
67041;SDS011;53949;47.790;18.750;2023-04-23T01:51:26;9.63;;;4.25;;
67041;SDS011;53949;47.790;18.750;2023-04-23T01:54:32;5.25;;;4.10;;
67041;SDS011;53949;47.790;18.750;2023-04-23T01:57:35;5.60;;;4.22;;
67041;SDS011;53949;47.790;18.750;2023-04-23T02:00:38;6.93;;;4.20;;
67041;SDS011;53949;47.790;18.750;2023-04-23T02:03:41;6.82;;;4.32;;
67041;SDS011;53949;47.790;18.750;2023-04-23T02:06:46;5.57;;;4.30;;
67041;SDS011;53949;47.790;18.750;2023-04-23T02:09:51;5.72;;;3.87;;
67041;SDS011;53949;47.790;18.750;2023-04-23T02:12:56;6.22;;;4.22;;
67041;SDS011;53949;47.790;18.750;2023-04-23T02:16:00;5.53;;;4.55;;
67041;SDS011;53949;47.790;18.750;2023-04-23T02:19:03;5.18;;;3.85;;
67041;SDS011;53949;47.790;18.750;2023-04-23T02:22:06;6.40;;;4.45;;
67041;SDS011;53949;47.790;18.750;2023-04-23T02:25:11;5.97;;;4.80;;
67041;SDS011;53949;47.790;18.750;2023-04-23T02:28:17;8.75;;;4.50;;
67041;SDS011;53949;47.790;18.750;2023-04-23T02:31:20;5.85;;;3.72;;
67041;SDS011;53949;47.790;18.750;2023-04-23T02:34:23;4.55;;;4.00;;
67041;SDS011;53949;47.790;18.750;2023-04-23T02:37:26;7.70;;;5.53;;
67041;SDS011;53949;47.790;18.750;2023-04-23T02:40:29;5.85;;;4.55;;
67041;SDS011;53949;47.790;18.750;2023-04-23T02:43:33;7.20;;;4.22;;
67041;SDS011;53949;47.790;18.750;2023-04-23T02:46:36;6.93;;;3.70;;
67041;SDS011;53949;47.790;18.750;2023-04-23T02:49:40;6.85;;;4.50;;
67041;SDS011;53949;47.790;18.750;2023-04-23T02:52:43;4.40;;;4.00;;
67041;SDS011;53949;47.790;18.750;2023-04-23T02:55:46;5.80;;;4.68;;
67041;SDS011;53949;47.790;18.750;2023-04-23T02:58:49;6.55;;;4.25;;
67041;SDS011;53949;47.790;18.750;2023-04-23T03:01:53;7.82;;;3.78;;
67041;SDS011;53949;47.790;18.750;2023-04-23T03:04:56;7.80;;;4.68;;
67041;SDS011;53949;47.790;18.750;2023-04-23T03:07:59;8.38;;;4.15;;
67041;SDS011;53949;47.790;18.750;2023-04-23T03:11:02;7.30;;;4.40;;
67041;SDS011;53949;47.790;18.750;2023-04-23T03:14:06;4.43;;;3.72;;
67041;SDS011;53949;47.790;18.750;2023-04-23T03:17:09;5.65;;;4.10;;
67041;SDS011;53949;47.790;18.750;2023-04-23T03:20:13;8.25;;;4.00;;
67041;SDS011;53949;47.790;18.750;2023-04-23T03:23:16;5.70;;;4.50;;
67041;SDS011;53949;47.790;18.750;2023-04-23T03:26:19;5.75;;;4.05;;
67041;SDS011;53949;47.790;18.750;2023-04-23T03:29:23;6.30;;;4.40;;
67041;SDS011;53949;47.790;18.750;2023-04-23T03:32:28;5.22;;;4.20;;
67041;SDS011;53949;47.790;18.750;2023-04-23T03:35:33;5.32;;;4.05;;
67041;SDS011;53949;47.790;18.750;2023-04-23T03:38:39;5.05;;;4.53;;
67041;SDS011;53949;47.790;18.750;2023-04-23T03:41:42;4.53;;;4.12;;
67041;SDS011;53949;47.790;18.750;2023-04-23T03:44:45;4.50;;;4.10;;
67041;SDS011;53949;47.790;18.750;2023-04-23T03:47:48;8.70;;;4.50;;
67041;SDS011;53949;47.790;18.750;2023-04-23T03:50:52;5.85;;;4.35;;
67041;SDS011;53949;47.790;18.750;2023-04-23T03:53:56;8.18;;;4.32;;
67041;SDS011;53949;47.790;18.750;2023-04-23T03:57:02;5.32;;;4.32;;
67041;SDS011;53949;47.790;18.750;2023-04-23T04:00:07;9.07;;;4.60;;
67041;SDS011;53949;47.790;18.750;2023-04-23T04:03:14;5.97;;;4.85;;
67041;SDS011;53949;47.790;18.750;2023-04-23T04:06:17;6.85;;;4.15;;
67041;SDS011;53949;47.790;18.750;2023-04-23T04:09:22;9.03;;;4.50;;
67041;SDS011;53949;47.790;18.750;2023-04-23T04:12:25;6.68;;;4.15;;
67041;SDS011;53949;47.790;18.750;2023-04-23T04:15:28;7.55;;;4.50;;
67041;SDS011;53949;47.790;18.750;2023-04-23T04:18:32;6.65;;;5.05;;
67041;SDS011;53949;47.790;18.750;2023-04-23T04:21:35;8.85;;;4.50;;
67041;SDS011;53949;47.790;18.750;2023-04-23T04:24:38;4.43;;;4.03;;
67041;SDS011;53949;47.790;18.750;2023-04-23T04:27:43;4.65;;;4.00;;
67041;SDS011;53949;47.790;18.750;2023-04-23T04:30:48;5.68;;;4.57;;
67041;SDS011;53949;47.790;18.750;2023-04-23T04:33:52;6.53;;;4.53;;
67041;SDS011;53949;47.790;18.750;2023-04-23T04:40:00;6.47;;;4.30;;
67041;SDS011;53949;47.790;18.750;2023-04-23T04:43:04;6.50;;;4.30;;
67041;SDS011;53949;47.790;18.750;2023-04-23T04:46:07;8.32;;;4.10;;
67041;SDS011;53949;47.790;18.750;2023-04-23T04:49:13;5.37;;;4.10;;
67041;SDS011;53949;47.790;18.750;2023-04-23T04:52:16;4.78;;;3.92;;
67041;SDS011;53949;47.790;18.750;2023-04-23T04:55:19;5.62;;;3.87;;
67041;SDS011;53949;47.790;18.750;2023-04-23T04:58:22;7.10;;;4.30;;
67041;SDS011;53949;47.790;18.750;2023-04-23T05:01:26;4.90;;;4.40;;
67041;SDS011;53949;47.790;18.750;2023-04-23T05:04:30;6.22;;;4.55;;
67041;SDS011;53949;47.790;18.750;2023-04-23T05:07:34;5.12;;;4.03;;
67041;SDS011;53949;47.790;18.750;2023-04-23T05:10:37;7.10;;;4.43;;
67041;SDS011;53949;47.790;18.750;2023-04-23T05:13:41;5.30;;;4.28;;
67041;SDS011;53949;47.790;18.750;2023-04-23T05:16:44;8.10;;;4.03;;
67041;SDS011;53949;47.790;18.750;2023-04-23T05:19:47;5.28;;;4.15;;
67041;SDS011;53949;47.790;18.750;2023-04-23T05:22:50;7.03;;;4.20;;
67041;SDS011;53949;47.790;18.750;2023-04-23T05:25:54;6.32;;;4.15;;
67041;SDS011;53949;47.790;18.750;2023-04-23T05:32:02;4.57;;;3.83;;
67041;SDS011;53949;47.790;18.750;2023-04-23T05:35:06;5.32;;;4.70;;
67041;SDS011;53949;47.790;18.750;2023-04-23T05:38:09;5.60;;;4.22;;
67041;SDS011;53949;47.790;18.750;2023-04-23T05:41:13;4.80;;;4.00;;
67041;SDS011;53949;47.790;18.750;2023-04-23T05:44:17;6.25;;;4.07;;
67041;SDS011;53949;47.790;18.750;2023-04-23T05:47:20;5.28;;;4.30;;
67041;SDS011;53949;47.790;18.750;2023-04-23T05:50:23;5.93;;;4.70;;
67041;SDS011;53949;47.790;18.750;2023-04-23T05:53:27;5.45;;;4.40;;
67041;SDS011;53949;47.790;18.750;2023-04-23T05:56:30;8.80;;;4.55;;
67041;SDS011;53949;47.790;18.750;2023-04-23T05:59:33;5.32;;;4.37;;
67041;SDS011;53949;47.790;18.750;2023-04-23T06:02:37;6.35;;;4.72;;
67041;SDS011;53949;47.790;18.750;2023-04-23T06:05:41;7.22;;;4.30;;
67041;SDS011;53949;47.790;18.750;2023-04-23T06:08:45;7.07;;;5.07;;
67041;SDS011;53949;47.790;18.750;2023-04-23T06:11:50;7.40;;;5.30;;
67041;SDS011;53949;47.790;18.750;2023-04-23T06:14:55;8.05;;;5.30;;
67041;SDS011;53949;47.790;18.750;2023-04-23T06:17:59;8.53;;;5.00;;
67041;SDS011;53949;47.790;18.750;2023-04-23T06:21:02;6.00;;;5.20;;
67041;SDS011;53949;47.790;18.750;2023-04-23T06:24:06;9.48;;;5.60;;
67041;SDS011;53949;47.790;18.750;2023-04-23T06:27:09;7.05;;;5.55;;
67041;SDS011;53949;47.790;18.750;2023-04-23T06:30:15;8.73;;;5.12;;
67041;SDS011;53949;47.790;18.750;2023-04-23T06:33:19;7.30;;;5.15;;
67041;SDS011;53949;47.790;18.750;2023-04-23T06:36:22;7.05;;;5.28;;
67041;SDS011;53949;47.790;18.750;2023-04-23T06:39:25;8.10;;;5.18;;
67041;SDS011;53949;47.790;18.750;2023-04-23T06:42:28;6.97;;;4.90;;
67041;SDS011;53949;47.790;18.750;2023-04-23T06:45:32;7.90;;;5.65;;
67041;SDS011;53949;47.790;18.750;2023-04-23T06:48:37;11.15;;;5.28;;
67041;SDS011;53949;47.790;18.750;2023-04-23T06:51:39;7.50;;;5.60;;
67041;SDS011;53949;47.790;18.750;2023-04-23T06:54:43;11.12;;;5.95;;
67041;SDS011;53949;47.790;18.750;2023-04-23T06:57:46;8.82;;;6.28;;
67041;SDS011;53949;47.790;18.750;2023-04-23T07:00:49;6.78;;;5.75;;
67041;SDS011;53949;47.790;18.750;2023-04-23T07:03:54;9.43;;;5.80;;
67041;SDS011;53949;47.790;18.750;2023-04-23T07:06:58;6.40;;;5.32;;
67041;SDS011;53949;47.790;18.750;2023-04-23T07:10:02;6.28;;;4.80;;
67041;SDS011;53949;47.790;18.750;2023-04-23T07:13:06;6.97;;;4.53;;
67041;SDS011;53949;47.790;18.750;2023-04-23T07:16:09;9.68;;;4.90;;
67041;SDS011;53949;47.790;18.750;2023-04-23T07:19:13;5.35;;;4.55;;
67041;SDS011;53949;47.790;18.750;2023-04-23T07:22:16;6.50;;;5.30;;
67041;SDS011;53949;47.790;18.750;2023-04-23T07:25:19;6.05;;;4.35;;
67041;SDS011;53949;47.790;18.750;2023-04-23T07:31:27;6.80;;;3.90;;
67041;SDS011;53949;47.790;18.750;2023-04-23T07:34:30;4.43;;;3.67;;
67041;SDS011;53949;47.790;18.750;2023-04-23T07:37:33;8.25;;;3.72;;
67041;SDS011;53949;47.790;18.750;2023-04-23T07:40:36;5.55;;;3.90;;
67041;SDS011;53949;47.790;18.750;2023-04-23T07:43:39;9.02;;;4.05;;
67041;SDS011;53949;47.790;18.750;2023-04-23T07:46:42;8.77;;;4.03;;
67041;SDS011;53949;47.790;18.750;2023-04-23T07:49:46;6.25;;;3.78;;
67041;SDS011;53949;47.790;18.750;2023-04-23T07:52:49;6.25;;;3.60;;
67041;SDS011;53949;47.790;18.750;2023-04-23T07:55:55;7.03;;;4.05;;
67041;SDS011;53949;47.790;18.750;2023-04-23T07:58:59;4.68;;;3.92;;
67041;SDS011;53949;47.790;18.750;2023-04-23T08:02:02;4.62;;;3.53;;
67041;SDS011;53949;47.790;18.750;2023-04-23T08:05:05;7.45;;;3.92;;
67041;SDS011;53949;47.790;18.750;2023-04-23T08:08:10;4.78;;;3.72;;
67041;SDS011;53949;47.790;18.750;2023-04-23T08:11:15;9.63;;;4.05;;
67041;SDS011;53949;47.790;18.750;2023-04-23T08:14:19;5.75;;;4.28;;
67041;SDS011;53949;47.790;18.750;2023-04-23T08:17:22;7.87;;;4.00;;
67041;SDS011;53949;47.790;18.750;2023-04-23T08:20:25;6.72;;;3.75;;
67041;SDS011;53949;47.790;18.750;2023-04-23T08:23:29;6.90;;;3.83;;
67041;SDS011;53949;47.790;18.750;2023-04-23T08:26:32;7.45;;;4.47;;
67041;SDS011;53949;47.790;18.750;2023-04-23T08:29:35;5.15;;;4.05;;
67041;SDS011;53949;47.790;18.750;2023-04-23T08:32:38;4.65;;;3.90;;
67041;SDS011;53949;47.790;18.750;2023-04-23T08:35:45;7.18;;;4.22;;
67041;SDS011;53949;47.790;18.750;2023-04-23T08:38:48;4.78;;;4.32;;
67041;SDS011;53949;47.790;18.750;2023-04-23T08:41:53;5.47;;;4.25;;
67041;SDS011;53949;47.790;18.750;2023-04-23T08:44:58;6.57;;;4.30;;
67041;SDS011;53949;47.790;18.750;2023-04-23T08:48:02;6.43;;;3.87;;
67041;SDS011;53949;47.790;18.750;2023-04-23T08:51:08;6.78;;;4.03;;
67041;SDS011;53949;47.790;18.750;2023-04-23T08:54:15;5.18;;;4.10;;
67041;SDS011;53949;47.790;18.750;2023-04-23T08:57:21;7.47;;;4.03;;
67041;SDS011;53949;47.790;18.750;2023-04-23T09:00:25;7.43;;;4.18;;
67041;SDS011;53949;47.790;18.750;2023-04-23T09:03:30;4.28;;;3.75;;
67041;SDS011;53949;47.790;18.750;2023-04-23T09:06:33;9.70;;;4.10;;
67041;SDS011;53949;47.790;18.750;2023-04-23T09:09:37;4.55;;;3.85;;
67041;SDS011;53949;47.790;18.750;2023-04-23T09:12:42;6.20;;;5.05;;
67041;SDS011;53949;47.790;18.750;2023-04-23T09:15:45;5.80;;;4.07;;
67041;SDS011;53949;47.790;18.750;2023-04-23T09:18:48;6.00;;;3.95;;
67041;SDS011;53949;47.790;18.750;2023-04-23T09:21:53;6.65;;;4.22;;
67041;SDS011;53949;47.790;18.750;2023-04-23T09:24:58;5.75;;;4.32;;
67041;SDS011;53949;47.790;18.750;2023-04-23T09:28:03;6.35;;;4.12;;
67041;SDS011;53949;47.790;18.750;2023-04-23T09:31:10;9.68;;;5.75;;
67041;SDS011;53949;47.790;18.750;2023-04-23T09:34:14;5.55;;;4.60;;
67041;SDS011;53949;47.790;18.750;2023-04-23T09:37:19;5.00;;;3.97;;
67041;SDS011;53949;47.790;18.750;2023-04-23T09:40:27;7.18;;;4.10;;
67041;SDS011;53949;47.790;18.750;2023-04-23T09:43:30;5.05;;;3.50;;
67041;SDS011;53949;47.790;18.750;2023-04-23T09:46:38;7.53;;;4.60;;
67041;SDS011;53949;47.790;18.750;2023-04-23T09:49:49;6.55;;;4.10;;
67041;SDS011;53949;47.790;18.750;2023-04-23T09:52:52;5.40;;;4.50;;
67041;SDS011;53949;47.790;18.750;2023-04-23T09:55:57;5.45;;;3.62;;
67041;SDS011;53949;47.790;18.750;2023-04-23T09:58:59;6.07;;;3.70;;
67041;SDS011;53949;47.790;18.750;2023-04-23T10:02:04;4.87;;;4.03;;
67041;SDS011;53949;47.790;18.750;2023-04-23T10:05:19;5.78;;;4.20;;
67041;SDS011;53949;47.790;18.750;2023-04-23T10:08:30;8.32;;;3.72;;
67041;SDS011;53949;47.790;18.750;2023-04-23T10:11:34;4.40;;;3.63;;
67041;SDS011;53949;47.790;18.750;2023-04-23T10:14:40;4.22;;;3.37;;
67041;SDS011;53949;47.790;18.750;2023-04-23T10:17:43;4.07;;;3.67;;
67041;SDS011;53949;47.790;18.750;2023-04-23T10:20:48;6.07;;;4.07;;
67041;SDS011;53949;47.790;18.750;2023-04-23T10:23:52;6.77;;;3.73;;
67041;SDS011;53949;47.790;18.750;2023-04-23T10:26:56;5.62;;;3.87;;
67041;SDS011;53949;47.790;18.750;2023-04-23T10:30:07;4.75;;;3.72;;
67041;SDS011;53949;47.790;18.750;2023-04-23T10:33:11;7.10;;;4.40;;
67041;SDS011;53949;47.790;18.750;2023-04-23T10:36:34;6.03;;;4.00;;
67041;SDS011;53949;47.790;18.750;2023-04-23T10:39:37;5.65;;;3.65;;
67041;SDS011;53949;47.790;18.750;2023-04-23T10:42:40;5.53;;;4.37;;
67041;SDS011;53949;47.790;18.750;2023-04-23T10:45:44;6.28;;;3.92;;
67041;SDS011;53949;47.790;18.750;2023-04-23T10:48:51;5.60;;;3.67;;
67041;SDS011;53949;47.790;18.750;2023-04-23T10:52:09;11.43;;;4.32;;
67041;SDS011;53949;47.790;18.750;2023-04-23T10:55:28;6.07;;;4.05;;
67041;SDS011;53949;47.790;18.750;2023-04-23T10:58:48;4.00;;;3.60;;
67041;SDS011;53949;47.790;18.750;2023-04-23T11:02:11;5.62;;;4.25;;
67041;SDS011;53949;47.790;18.750;2023-04-23T11:05:15;7.90;;;4.15;;
67041;SDS011;53949;47.790;18.750;2023-04-23T11:08:30;5.30;;;4.07;;
67041;SDS011;53949;47.790;18.750;2023-04-23T11:11:38;4.83;;;3.90;;
67041;SDS011;53949;47.790;18.750;2023-04-23T11:20:55;5.12;;;3.20;;
67041;SDS011;53949;47.790;18.750;2023-04-23T11:24:00;7.10;;;3.15;;
67041;SDS011;53949;47.790;18.750;2023-04-23T11:27:04;4.40;;;3.20;;
67041;SDS011;53949;47.790;18.750;2023-04-23T11:30:12;6.43;;;3.58;;
67041;SDS011;53949;47.790;18.750;2023-04-23T11:33:16;6.50;;;3.50;;
67041;SDS011;53949;47.790;18.750;2023-04-23T11:36:19;4.32;;;3.25;;
67041;SDS011;53949;47.790;18.750;2023-04-23T11:42:27;10.80;;;3.42;;
67041;SDS011;53949;47.790;18.750;2023-04-23T11:45:30;4.72;;;3.53;;
67041;SDS011;53949;47.790;18.750;2023-04-23T11:51:41;4.40;;;3.12;;
67041;SDS011;53949;47.790;18.750;2023-04-23T11:54:46;3.67;;;3.33;;
67041;SDS011;53949;47.790;18.750;2023-04-23T11:57:49;4.10;;;3.17;;
67041;SDS011;53949;47.790;18.750;2023-04-23T12:00:57;6.85;;;3.30;;
67041;SDS011;53949;47.790;18.750;2023-04-23T12:04:23;3.92;;;2.83;;
67041;SDS011;53949;47.790;18.750;2023-04-23T12:07:33;5.70;;;3.30;;
67041;SDS011;53949;47.790;18.750;2023-04-23T12:10:45;3.85;;;3.03;;
67041;SDS011;53949;47.790;18.750;2023-04-23T12:13:49;5.35;;;2.83;;
67041;SDS011;53949;47.790;18.750;2023-04-23T12:16:52;3.40;;;2.60;;
67041;SDS011;53949;47.790;18.750;2023-04-23T12:19:55;6.97;;;2.78;;
67041;SDS011;53949;47.790;18.750;2023-04-23T12:23:03;2.72;;;2.53;;
67041;SDS011;53949;47.790;18.750;2023-04-23T12:26:10;5.03;;;3.65;;
67041;SDS011;53949;47.790;18.750;2023-04-23T12:29:16;3.90;;;2.58;;
67041;SDS011;53949;47.790;18.750;2023-04-23T12:32:19;5.82;;;3.40;;
67041;SDS011;53949;47.790;18.750;2023-04-23T12:38:51;5.65;;;3.20;;
67041;SDS011;53949;47.790;18.750;2023-04-23T12:41:56;6.37;;;2.85;;
67041;SDS011;53949;47.790;18.750;2023-04-23T12:45:05;3.65;;;3.20;;
67041;SDS011;53949;47.790;18.750;2023-04-23T12:48:10;3.03;;;2.83;;
67041;SDS011;53949;47.790;18.750;2023-04-23T12:51:13;3.30;;;3.00;;
67041;SDS011;53949;47.790;18.750;2023-04-23T12:54:16;4.12;;;2.67;;
67041;SDS011;53949;47.790;18.750;2023-04-23T12:57:19;3.53;;;2.78;;
67041;SDS011;53949;47.790;18.750;2023-04-23T13:00:25;3.00;;;2.45;;
67041;SDS011;53949;47.790;18.750;2023-04-23T13:03:28;3.17;;;2.90;;
67041;SDS011;53949;47.790;18.750;2023-04-23T13:06:32;4.62;;;3.17;;
67041;SDS011;53949;47.790;18.750;2023-04-23T13:09:36;3.72;;;3.17;;
67041;SDS011;53949;47.790;18.750;2023-04-23T13:12:41;3.80;;;2.80;;
67041;SDS011;53949;47.790;18.750;2023-04-23T13:15:46;3.12;;;2.92;;
67041;SDS011;53949;47.790;18.750;2023-04-23T13:18:49;2.55;;;2.42;;
67041;SDS011;53949;47.790;18.750;2023-04-23T13:21:55;3.75;;;2.67;;
67041;SDS011;53949;47.790;18.750;2023-04-23T13:24:58;5.10;;;2.62;;
67041;SDS011;53949;47.790;18.750;2023-04-23T13:28:01;2.75;;;2.50;;
67041;SDS011;53949;47.790;18.750;2023-04-23T13:31:04;4.05;;;2.70;;
67041;SDS011;53949;47.790;18.750;2023-04-23T13:34:08;2.67;;;2.35;;
67041;SDS011;53949;47.790;18.750;2023-04-23T13:37:12;3.43;;;2.60;;
67041;SDS011;53949;47.790;18.750;2023-04-23T13:40:15;3.87;;;2.70;;
67041;SDS011;53949;47.790;18.750;2023-04-23T13:43:18;3.00;;;2.53;;
67041;SDS011;53949;47.790;18.750;2023-04-23T13:46:21;2.60;;;2.40;;
67041;SDS011;53949;47.790;18.750;2023-04-23T13:49:25;3.03;;;2.73;;
67041;SDS011;53949;47.790;18.750;2023-04-23T13:58:36;2.95;;;2.65;;
67041;SDS011;53949;47.790;18.750;2023-04-23T14:01:40;3.25;;;2.62;;
67041;SDS011;53949;47.790;18.750;2023-04-23T14:04:43;3.53;;;2.75;;
67041;SDS011;53949;47.790;18.750;2023-04-23T14:07:46;4.03;;;2.50;;
67041;SDS011;53949;47.790;18.750;2023-04-23T14:10:49;2.60;;;2.30;;
67041;SDS011;53949;47.790;18.750;2023-04-23T14:13:52;2.93;;;2.70;;
67041;SDS011;53949;47.790;18.750;2023-04-23T14:16:56;4.97;;;2.50;;
67041;SDS011;53949;47.790;18.750;2023-04-23T14:19:59;4.97;;;2.70;;
67041;SDS011;53949;47.790;18.750;2023-04-23T14:23:02;2.33;;;2.22;;
67041;SDS011;53949;47.790;18.750;2023-04-23T14:32:54;2.90;;;2.60;;
67041;SDS011;53949;47.790;18.750;2023-04-23T14:35:58;5.72;;;2.65;;
67041;SDS011;53949;47.790;18.750;2023-04-23T14:42:06;3.20;;;2.62;;
67041;SDS011;53949;47.790;18.750;2023-04-23T14:45:09;4.63;;;2.70;;
67041;SDS011;53949;47.790;18.750;2023-04-23T14:48:13;4.25;;;2.80;;
67041;SDS011;53949;47.790;18.750;2023-04-23T14:51:16;4.90;;;2.93;;
67041;SDS011;53949;47.790;18.750;2023-04-23T14:54:20;4.10;;;2.72;;
67041;SDS011;53949;47.790;18.750;2023-04-23T14:57:23;3.03;;;2.53;;
67041;SDS011;53949;47.790;18.750;2023-04-23T15:00:28;3.50;;;2.65;;
67041;SDS011;53949;47.790;18.750;2023-04-23T15:03:32;4.12;;;2.47;;
67041;SDS011;53949;47.790;18.750;2023-04-23T15:09:39;4.20;;;2.92;;
67041;SDS011;53949;47.790;18.750;2023-04-23T15:16:07;5.75;;;2.95;;
67041;SDS011;53949;47.790;18.750;2023-04-23T15:19:31;3.72;;;2.50;;
67041;SDS011;53949;47.790;18.750;2023-04-23T15:22:34;2.50;;;2.30;;
67041;SDS011;53949;47.790;18.750;2023-04-23T15:25:39;6.43;;;2.90;;
67041;SDS011;53949;47.790;18.750;2023-04-23T15:28:42;2.50;;;2.30;;
67041;SDS011;53949;47.790;18.750;2023-04-23T15:31:45;7.78;;;3.12;;
67041;SDS011;53949;47.790;18.750;2023-04-23T15:34:48;6.12;;;2.83;;
67041;SDS011;53949;47.790;18.750;2023-04-23T15:37:54;3.03;;;2.72;;
67041;SDS011;53949;47.790;18.750;2023-04-23T15:40:58;4.93;;;4.12;;
67041;SDS011;53949;47.790;18.750;2023-04-23T15:44:02;3.50;;;2.78;;
67041;SDS011;53949;47.790;18.750;2023-04-23T15:47:05;3.55;;;2.55;;
67041;SDS011;53949;47.790;18.750;2023-04-23T15:50:09;5.05;;;2.62;;
67041;SDS011;53949;47.790;18.750;2023-04-23T15:56:15;5.32;;;2.65;;
67041;SDS011;53949;47.790;18.750;2023-04-23T15:59:18;5.57;;;2.60;;
67041;SDS011;53949;47.790;18.750;2023-04-23T16:02:22;4.00;;;2.67;;
67041;SDS011;53949;47.790;18.750;2023-04-23T16:05:27;5.90;;;2.90;;
67041;SDS011;53949;47.790;18.750;2023-04-23T16:08:33;3.08;;;2.60;;
67041;SDS011;53949;47.790;18.750;2023-04-23T16:11:37;3.35;;;2.92;;
67041;SDS011;53949;47.790;18.750;2023-04-23T16:14:41;2.92;;;2.72;;
67041;SDS011;53949;47.790;18.750;2023-04-23T16:17:44;3.70;;;2.80;;
67041;SDS011;53949;47.790;18.750;2023-04-23T16:20:48;3.17;;;2.80;;
67041;SDS011;53949;47.790;18.750;2023-04-23T16:26:54;2.80;;;2.60;;
67041;SDS011;53949;47.790;18.750;2023-04-23T16:29:57;4.32;;;3.28;;
67041;SDS011;53949;47.790;18.750;2023-04-23T16:33:00;4.03;;;3.03;;
67041;SDS011;53949;47.790;18.750;2023-04-23T16:36:04;4.03;;;2.95;;
67041;SDS011;53949;47.790;18.750;2023-04-23T16:39:08;3.25;;;2.58;;
67041;SDS011;53949;47.790;18.750;2023-04-23T16:42:13;3.33;;;3.03;;
67041;SDS011;53949;47.790;18.750;2023-04-23T16:45:17;3.80;;;2.77;;
67041;SDS011;53949;47.790;18.750;2023-04-23T16:48:24;3.97;;;2.90;;
67041;SDS011;53949;47.790;18.750;2023-04-23T16:51:27;6.73;;;3.27;;
67041;SDS011;53949;47.790;18.750;2023-04-23T16:54:32;5.60;;;3.15;;
67041;SDS011;53949;47.790;18.750;2023-04-23T16:57:37;4.28;;;2.80;;
67041;SDS011;53949;47.790;18.750;2023-04-23T17:00:41;6.90;;;3.40;;
67041;SDS011;53949;47.790;18.750;2023-04-23T17:03:46;5.10;;;4.07;;
67041;SDS011;53949;47.790;18.750;2023-04-23T17:06:51;3.50;;;3.20;;
67041;SDS011;53949;47.790;18.750;2023-04-23T17:12:57;3.28;;;3.00;;
67041;SDS011;53949;47.790;18.750;2023-04-23T17:16:01;4.55;;;3.33;;
67041;SDS011;53949;47.790;18.750;2023-04-23T17:19:05;3.50;;;3.20;;
67041;SDS011;53949;47.790;18.750;2023-04-23T17:22:09;3.22;;;2.92;;
67041;SDS011;53949;47.790;18.750;2023-04-23T17:25:14;5.00;;;3.40;;
67041;SDS011;53949;47.790;18.750;2023-04-23T17:28:17;3.80;;;3.50;;
67041;SDS011;53949;47.790;18.750;2023-04-23T17:31:22;5.22;;;3.20;;
67041;SDS011;53949;47.790;18.750;2023-04-23T17:34:28;4.10;;;3.60;;
67041;SDS011;53949;47.790;18.750;2023-04-23T17:37:32;4.25;;;3.15;;
67041;SDS011;53949;47.790;18.750;2023-04-23T17:40:36;4.32;;;3.30;;
67041;SDS011;53949;47.790;18.750;2023-04-23T17:43:41;6.62;;;4.10;;
67041;SDS011;53949;47.790;18.750;2023-04-23T17:46:45;11.27;;;5.90;;
67041;SDS011;53949;47.790;18.750;2023-04-23T17:49:49;5.12;;;3.78;;
67041;SDS011;53949;47.790;18.750;2023-04-23T17:52:53;7.80;;;5.90;;
67041;SDS011;53949;47.790;18.750;2023-04-23T17:55:57;5.15;;;4.28;;
67041;SDS011;53949;47.790;18.750;2023-04-23T17:59:05;3.85;;;3.45;;
67041;SDS011;53949;47.790;18.750;2023-04-23T18:02:09;3.47;;;3.17;;
67041;SDS011;53949;47.790;18.750;2023-04-23T18:05:24;4.13;;;3.50;;
67041;SDS011;53949;47.790;18.750;2023-04-23T18:08:27;5.53;;;3.47;;
67041;SDS011;53949;47.790;18.750;2023-04-23T18:11:33;6.62;;;3.30;;
67041;SDS011;53949;47.790;18.750;2023-04-23T18:14:36;5.70;;;3.47;;
67041;SDS011;53949;47.790;18.750;2023-04-23T18:17:41;4.78;;;3.67;;
67041;SDS011;53949;47.790;18.750;2023-04-23T18:20:47;3.72;;;3.00;;
67041;SDS011;53949;47.790;18.750;2023-04-23T18:23:52;3.70;;;3.40;;
67041;SDS011;53949;47.790;18.750;2023-04-23T18:26:55;3.58;;;3.25;;
67041;SDS011;53949;47.790;18.750;2023-04-23T18:30:03;3.92;;;3.15;;
67041;SDS011;53949;47.790;18.750;2023-04-23T18:36:29;4.25;;;3.15;;
67041;SDS011;53949;47.790;18.750;2023-04-23T18:39:33;3.78;;;3.45;;
67041;SDS011;53949;47.790;18.750;2023-04-23T18:42:38;4.18;;;3.20;;
67041;SDS011;53949;47.790;18.750;2023-04-23T18:45:41;3.40;;;3.00;;
67041;SDS011;53949;47.790;18.750;2023-04-23T18:52:31;3.80;;;3.35;;
67041;SDS011;53949;47.790;18.750;2023-04-23T18:55:35;6.53;;;3.62;;
67041;SDS011;53949;47.790;18.750;2023-04-23T18:58:39;3.28;;;2.95;;
67041;SDS011;53949;47.790;18.750;2023-04-23T19:01:43;4.15;;;3.12;;
67041;SDS011;53949;47.790;18.750;2023-04-23T19:04:49;4.95;;;3.50;;
67041;SDS011;53949;47.790;18.750;2023-04-23T19:07:53;6.82;;;3.60;;
67041;SDS011;53949;47.790;18.750;2023-04-23T19:10:58;7.25;;;3.40;;
67041;SDS011;53949;47.790;18.750;2023-04-23T19:14:03;5.10;;;3.20;;
67041;SDS011;53949;47.790;18.750;2023-04-23T19:17:07;3.97;;;3.53;;